sensor_id;sensor_type;location;lat;lon;timestamp;P1;durP1;ratioP1;P2;durP2;ratioP2
18021;SDS011;9136;48.822;7.966;2023-04-25T00:00:29;17.50;;;16.77;;
18021;SDS011;9136;48.822;7.966;2023-04-25T00:03:22;18.50;;;17.67;;
18021;SDS011;9136;48.822;7.966;2023-04-25T00:06:12;17.17;;;16.37;;
18021;SDS011;9136;48.822;7.966;2023-04-25T00:09:00;18.40;;;17.60;;
18021;SDS011;9136;48.822;7.966;2023-04-25T00:11:49;18.40;;;17.60;;
18021;SDS011;9136;48.822;7.966;2023-04-25T00:14:37;17.97;;;17.17;;
18021;SDS011;9136;48.822;7.966;2023-04-25T00:17:25;19.10;;;18.20;;
18021;SDS011;9136;48.822;7.966;2023-04-25T00:20:14;17.63;;;16.83;;
18021;SDS011;9136;48.822;7.966;2023-04-25T00:23:04;16.50;;;15.70;;
18021;SDS011;9136;48.822;7.966;2023-04-25T00:25:52;15.83;;;15.10;;
18021;SDS011;9136;48.822;7.966;2023-04-25T00:28:40;17.73;;;16.93;;
18021;SDS011;9136;48.822;7.966;2023-04-25T00:31:28;17.47;;;16.67;;
18021;SDS011;9136;48.822;7.966;2023-04-25T00:34:16;16.90;;;16.17;;
18021;SDS011;9136;48.822;7.966;2023-04-25T00:37:04;17.67;;;16.87;;
18021;SDS011;9136;48.822;7.966;2023-04-25T00:39:54;17.20;;;16.50;;
18021;SDS011;9136;48.822;7.966;2023-04-25T00:42:42;18.77;;;17.97;;
18021;SDS011;9136;48.822;7.966;2023-04-25T00:45:31;18.97;;;18.13;;
18021;SDS011;9136;48.822;7.966;2023-04-25T00:48:21;20.10;;;19.10;;
18021;SDS011;9136;48.822;7.966;2023-04-25T00:51:09;18.03;;;17.13;;
18021;SDS011;9136;48.822;7.966;2023-04-25T00:54:03;16.73;;;15.83;;
18021;SDS011;9136;48.822;7.966;2023-04-25T00:56:53;20.17;;;19.20;;
18021;SDS011;9136;48.822;7.966;2023-04-25T00:59:41;15.10;;;14.50;;
18021;SDS011;9136;48.822;7.966;2023-04-25T01:02:33;16.00;;;15.30;;
18021;SDS011;9136;48.822;7.966;2023-04-25T01:05:22;17.83;;;17.00;;
18021;SDS011;9136;48.822;7.966;2023-04-25T01:08:10;17.90;;;17.10;;
18021;SDS011;9136;48.822;7.966;2023-04-25T01:10:58;18.23;;;17.43;;
18021;SDS011;9136;48.822;7.966;2023-04-25T01:13:47;17.07;;;16.37;;
18021;SDS011;9136;48.822;7.966;2023-04-25T01:16:35;18.77;;;17.97;;
18021;SDS011;9136;48.822;7.966;2023-04-25T01:19:23;17.53;;;16.73;;
18021;SDS011;9136;48.822;7.966;2023-04-25T01:22:13;19.63;;;18.57;;
18021;SDS011;9136;48.822;7.966;2023-04-25T01:25:01;18.00;;;17.20;;
18021;SDS011;9136;48.822;7.966;2023-04-25T01:27:49;17.40;;;16.53;;
18021;SDS011;9136;48.822;7.966;2023-04-25T01:30:40;16.40;;;15.60;;
18021;SDS011;9136;48.822;7.966;2023-04-25T01:33:28;18.13;;;17.33;;
18021;SDS011;9136;48.822;7.966;2023-04-25T01:36:16;17.07;;;16.30;;
18021;SDS011;9136;48.822;7.966;2023-04-25T01:39:06;18.10;;;17.30;;
18021;SDS011;9136;48.822;7.966;2023-04-25T01:41:54;17.63;;;16.87;;
18021;SDS011;9136;48.822;7.966;2023-04-25T01:44:43;17.57;;;16.80;;
18021;SDS011;9136;48.822;7.966;2023-04-25T01:47:31;20.07;;;19.17;;
18021;SDS011;9136;48.822;7.966;2023-04-25T01:50:22;19.33;;;18.43;;
18021;SDS011;9136;48.822;7.966;2023-04-25T01:53:10;18.77;;;17.87;;
18021;SDS011;9136;48.822;7.966;2023-04-25T01:56:01;17.30;;;16.60;;
18021;SDS011;9136;48.822;7.966;2023-04-25T01:58:49;16.83;;;16.13;;
18021;SDS011;9136;48.822;7.966;2023-04-25T02:01:38;17.87;;;17.07;;
18021;SDS011;9136;48.822;7.966;2023-04-25T02:04:26;18.10;;;17.30;;
18021;SDS011;9136;48.822;7.966;2023-04-25T02:07:16;16.20;;;15.50;;
18021;SDS011;9136;48.822;7.966;2023-04-25T02:10:04;17.17;;;16.47;;
18021;SDS011;9136;48.822;7.966;2023-04-25T02:12:54;17.63;;;16.83;;
18021;SDS011;9136;48.822;7.966;2023-04-25T02:15:42;17.20;;;16.50;;
18021;SDS011;9136;48.822;7.966;2023-04-25T02:18:30;19.40;;;18.50;;
18021;SDS011;9136;48.822;7.966;2023-04-25T02:21:19;15.87;;;15.17;;
18021;SDS011;9136;48.822;7.966;2023-04-25T02:24:07;16.33;;;15.63;;
18021;SDS011;9136;48.822;7.966;2023-04-25T02:26:56;15.37;;;14.67;;
18021;SDS011;9136;48.822;7.966;2023-04-25T02:29:46;15.73;;;15.03;;
18021;SDS011;9136;48.822;7.966;2023-04-25T02:32:34;16.60;;;15.90;;
18021;SDS011;9136;48.822;7.966;2023-04-25T02:35:22;18.83;;;18.03;;
18021;SDS011;9136;48.822;7.966;2023-04-25T02:38:10;19.17;;;18.37;;
18021;SDS011;9136;48.822;7.966;2023-04-25T02:40:58;18.13;;;17.33;;
18021;SDS011;9136;48.822;7.966;2023-04-25T02:43:48;17.63;;;16.83;;
18021;SDS011;9136;48.822;7.966;2023-04-25T02:46:37;18.87;;;18.07;;
18021;SDS011;9136;48.822;7.966;2023-04-25T02:49:27;18.80;;;18.00;;
18021;SDS011;9136;48.822;7.966;2023-04-25T02:52:16;19.00;;;18.20;;
18021;SDS011;9136;48.822;7.966;2023-04-25T02:55:04;17.60;;;16.80;;
18021;SDS011;9136;48.822;7.966;2023-04-25T02:57:52;16.07;;;15.37;;
18021;SDS011;9136;48.822;7.966;2023-04-25T03:00:42;16.30;;;15.60;;
18021;SDS011;9136;48.822;7.966;2023-04-25T03:03:33;18.23;;;17.43;;
18021;SDS011;9136;48.822;7.966;2023-04-25T03:06:21;16.50;;;15.80;;
18021;SDS011;9136;48.822;7.966;2023-04-25T03:09:08;18.30;;;17.50;;
18021;SDS011;9136;48.822;7.966;2023-04-25T03:11:57;18.67;;;17.77;;
18021;SDS011;9136;48.822;7.966;2023-04-25T03:14:46;19.57;;;18.70;;
18021;SDS011;9136;48.822;7.966;2023-04-25T03:17:34;18.90;;;18.10;;
18021;SDS011;9136;48.822;7.966;2023-04-25T03:20:23;16.43;;;15.67;;
18021;SDS011;9136;48.822;7.966;2023-04-25T03:23:13;17.20;;;16.47;;
18021;SDS011;9136;48.822;7.966;2023-04-25T03:26:01;20.37;;;19.47;;
18021;SDS011;9136;48.822;7.966;2023-04-25T03:28:50;16.60;;;15.90;;
18021;SDS011;9136;48.822;7.966;2023-04-25T03:31:38;18.17;;;17.37;;
18021;SDS011;9136;48.822;7.966;2023-04-25T03:34:26;18.40;;;17.60;;
18021;SDS011;9136;48.822;7.966;2023-04-25T03:37:18;17.50;;;16.70;;
18021;SDS011;9136;48.822;7.966;2023-04-25T03:40:07;16.93;;;16.17;;
18021;SDS011;9136;48.822;7.966;2023-04-25T03:42:57;16.87;;;16.10;;
18021;SDS011;9136;48.822;7.966;2023-04-25T03:45:45;21.30;;;20.30;;
18021;SDS011;9136;48.822;7.966;2023-04-25T03:48:35;19.53;;;18.63;;
18021;SDS011;9136;48.822;7.966;2023-04-25T03:51:25;19.27;;;18.43;;
18021;SDS011;9136;48.822;7.966;2023-04-25T03:54:15;18.17;;;17.37;;
18021;SDS011;9136;48.822;7.966;2023-04-25T03:57:03;19.43;;;18.53;;
18021;SDS011;9136;48.822;7.966;2023-04-25T03:59:52;18.23;;;17.43;;
18021;SDS011;9136;48.822;7.966;2023-04-25T04:02:40;17.60;;;16.80;;
18021;SDS011;9136;48.822;7.966;2023-04-25T04:05:27;18.17;;;17.37;;
18021;SDS011;9136;48.822;7.966;2023-04-25T04:08:16;18.73;;;17.93;;
18021;SDS011;9136;48.822;7.966;2023-04-25T04:11:05;17.97;;;17.17;;
18021;SDS011;9136;48.822;7.966;2023-04-25T04:13:53;17.80;;;17.00;;
18021;SDS011;9136;48.822;7.966;2023-04-25T04:16:41;19.50;;;18.67;;
18021;SDS011;9136;48.822;7.966;2023-04-25T04:19:29;17.27;;;16.57;;
18021;SDS011;9136;48.822;7.966;2023-04-25T04:22:17;17.03;;;16.23;;
18021;SDS011;9136;48.822;7.966;2023-04-25T04:25:05;17.67;;;16.87;;
18021;SDS011;9136;48.822;7.966;2023-04-25T04:27:55;17.33;;;16.60;;
18021;SDS011;9136;48.822;7.966;2023-04-25T04:30:45;18.63;;;17.83;;
18021;SDS011;9136;48.822;7.966;2023-04-25T04:33:33;20.00;;;19.10;;
18021;SDS011;9136;48.822;7.966;2023-04-25T04:36:21;16.70;;;16.00;;
18021;SDS011;9136;48.822;7.966;2023-04-25T04:39:09;18.00;;;17.20;;
18021;SDS011;9136;48.822;7.966;2023-04-25T04:41:57;17.93;;;17.13;;
18021;SDS011;9136;48.822;7.966;2023-04-25T04:44:48;17.27;;;16.57;;
18021;SDS011;9136;48.822;7.966;2023-04-25T04:47:39;17.80;;;16.80;;
18021;SDS011;9136;48.822;7.966;2023-04-25T04:50:30;16.47;;;15.77;;
18021;SDS011;9136;48.822;7.966;2023-04-25T04:53:19;16.73;;;15.97;;
18021;SDS011;9136;48.822;7.966;2023-04-25T04:56:07;17.93;;;17.13;;
18021;SDS011;9136;48.822;7.966;2023-04-25T04:58:55;16.17;;;15.47;;
18021;SDS011;9136;48.822;7.966;2023-04-25T05:01:47;18.13;;;17.33;;
18021;SDS011;9136;48.822;7.966;2023-04-25T05:04:34;18.90;;;18.00;;
18021;SDS011;9136;48.822;7.966;2023-04-25T05:07:22;18.80;;;18.00;;
18021;SDS011;9136;48.822;7.966;2023-04-25T05:10:10;18.70;;;17.80;;
18021;SDS011;9136;48.822;7.966;2023-04-25T05:12:58;17.30;;;16.53;;
18021;SDS011;9136;48.822;7.966;2023-04-25T05:15:46;20.70;;;19.80;;
18021;SDS011;9136;48.822;7.966;2023-04-25T05:18:35;18.87;;;18.07;;
18021;SDS011;9136;48.822;7.966;2023-04-25T05:21:23;19.80;;;18.90;;
18021;SDS011;9136;48.822;7.966;2023-04-25T05:24:11;17.63;;;16.83;;
18021;SDS011;9136;48.822;7.966;2023-04-25T05:26:59;19.97;;;19.07;;
18021;SDS011;9136;48.822;7.966;2023-04-25T05:29:47;20.10;;;19.20;;
18021;SDS011;9136;48.822;7.966;2023-04-25T05:32:34;17.93;;;17.13;;
18021;SDS011;9136;48.822;7.966;2023-04-25T05:35:24;18.33;;;17.50;;
18021;SDS011;9136;48.822;7.966;2023-04-25T05:38:12;18.03;;;17.23;;
18021;SDS011;9136;48.822;7.966;2023-04-25T05:41:00;17.87;;;17.07;;
18021;SDS011;9136;48.822;7.966;2023-04-25T05:43:48;19.27;;;18.43;;
18021;SDS011;9136;48.822;7.966;2023-04-25T05:46:36;18.27;;;17.47;;
18021;SDS011;9136;48.822;7.966;2023-04-25T05:49:24;19.70;;;18.80;;
18021;SDS011;9136;48.822;7.966;2023-04-25T05:52:13;20.90;;;19.90;;
18021;SDS011;9136;48.822;7.966;2023-04-25T05:55:02;20.37;;;19.47;;
18021;SDS011;9136;48.822;7.966;2023-04-25T05:57:50;19.87;;;18.97;;
18021;SDS011;9136;48.822;7.966;2023-04-25T06:00:38;22.77;;;21.77;;
18021;SDS011;9136;48.822;7.966;2023-04-25T06:03:27;21.00;;;20.00;;
18021;SDS011;9136;48.822;7.966;2023-04-25T06:06:15;21.40;;;20.40;;
18021;SDS011;9136;48.822;7.966;2023-04-25T06:09:04;19.80;;;18.90;;
18021;SDS011;9136;48.822;7.966;2023-04-25T06:11:52;21.33;;;20.33;;
18021;SDS011;9136;48.822;7.966;2023-04-25T06:14:40;19.87;;;18.87;;
18021;SDS011;9136;48.822;7.966;2023-04-25T06:17:28;22.17;;;21.17;;
18021;SDS011;9136;48.822;7.966;2023-04-25T06:20:16;20.40;;;19.50;;
18021;SDS011;9136;48.822;7.966;2023-04-25T06:23:08;22.77;;;21.77;;
18021;SDS011;9136;48.822;7.966;2023-04-25T06:25:58;21.83;;;20.83;;
18021;SDS011;9136;48.822;7.966;2023-04-25T06:28:45;20.27;;;19.23;;
18021;SDS011;9136;48.822;7.966;2023-04-25T06:31:33;20.60;;;19.60;;
18021;SDS011;9136;48.822;7.966;2023-04-25T06:34:21;20.63;;;19.73;;
18021;SDS011;9136;48.822;7.966;2023-04-25T06:37:09;21.97;;;20.97;;
18021;SDS011;9136;48.822;7.966;2023-04-25T06:39:56;20.17;;;19.23;;
18021;SDS011;9136;48.822;7.966;2023-04-25T06:42:50;22.23;;;21.23;;
18021;SDS011;9136;48.822;7.966;2023-04-25T06:45:41;21.13;;;20.20;;
18021;SDS011;9136;48.822;7.966;2023-04-25T06:48:29;21.37;;;20.47;;
18021;SDS011;9136;48.822;7.966;2023-04-25T06:51:33;22.47;;;21.47;;
18021;SDS011;9136;48.822;7.966;2023-04-25T06:54:23;18.17;;;17.37;;
18021;SDS011;9136;48.822;7.966;2023-04-25T06:57:13;18.67;;;17.87;;
18021;SDS011;9136;48.822;7.966;2023-04-25T07:00:04;18.37;;;17.57;;
18021;SDS011;9136;48.822;7.966;2023-04-25T07:02:55;20.30;;;19.40;;
18021;SDS011;9136;48.822;7.966;2023-04-25T07:05:43;20.03;;;18.97;;
18021;SDS011;9136;48.822;7.966;2023-04-25T07:08:31;18.80;;;18.00;;
18021;SDS011;9136;48.822;7.966;2023-04-25T07:11:19;19.13;;;18.33;;
18021;SDS011;9136;48.822;7.966;2023-04-25T07:14:07;20.80;;;19.90;;
18021;SDS011;9136;48.822;7.966;2023-04-25T07:16:56;17.83;;;17.03;;
18021;SDS011;9136;48.822;7.966;2023-04-25T07:19:46;21.13;;;20.23;;
18021;SDS011;9136;48.822;7.966;2023-04-25T07:22:34;19.67;;;18.77;;
18021;SDS011;9136;48.822;7.966;2023-04-25T07:25:21;17.90;;;17.10;;
18021;SDS011;9136;48.822;7.966;2023-04-25T07:28:10;20.57;;;19.67;;
18021;SDS011;9136;48.822;7.966;2023-04-25T07:30:57;23.10;;;21.80;;
18021;SDS011;9136;48.822;7.966;2023-04-25T07:33:47;21.23;;;20.23;;
18021;SDS011;9136;48.822;7.966;2023-04-25T07:36:34;21.50;;;20.53;;
18021;SDS011;9136;48.822;7.966;2023-04-25T07:39:23;22.17;;;20.87;;
18021;SDS011;9136;48.822;7.966;2023-04-25T07:42:11;20.67;;;19.77;;
18021;SDS011;9136;48.822;7.966;2023-04-25T07:44:59;20.63;;;19.73;;
18021;SDS011;9136;48.822;7.966;2023-04-25T07:47:48;21.93;;;20.93;;
18021;SDS011;9136;48.822;7.966;2023-04-25T07:50:39;22.27;;;21.27;;
18021;SDS011;9136;48.822;7.966;2023-04-25T07:53:32;18.80;;;17.90;;
18021;SDS011;9136;48.822;7.966;2023-04-25T07:56:21;18.00;;;17.20;;
18021;SDS011;9136;48.822;7.966;2023-04-25T07:59:09;20.70;;;19.80;;
18021;SDS011;9136;48.822;7.966;2023-04-25T08:01:57;19.83;;;18.93;;
18021;SDS011;9136;48.822;7.966;2023-04-25T08:04:45;22.40;;;21.40;;
18021;SDS011;9136;48.822;7.966;2023-04-25T08:07:36;20.33;;;19.43;;
18021;SDS011;9136;48.822;7.966;2023-04-25T08:10:24;17.10;;;16.07;;
18021;SDS011;9136;48.822;7.966;2023-04-25T08:13:12;22.00;;;21.00;;
18021;SDS011;9136;48.822;7.966;2023-04-25T08:16:00;19.13;;;18.23;;
18021;SDS011;9136;48.822;7.966;2023-04-25T08:18:48;17.03;;;16.33;;
18021;SDS011;9136;48.822;7.966;2023-04-25T08:21:37;20.00;;;19.10;;
18021;SDS011;9136;48.822;7.966;2023-04-25T08:24:26;21.43;;;20.43;;
18021;SDS011;9136;48.822;7.966;2023-04-25T08:27:14;19.17;;;18.27;;
18021;SDS011;9136;48.822;7.966;2023-04-25T08:30:02;20.77;;;19.87;;
18021;SDS011;9136;48.822;7.966;2023-04-25T08:32:51;19.93;;;19.03;;
18021;SDS011;9136;48.822;7.966;2023-04-25T08:35:40;22.03;;;20.90;;
18021;SDS011;9136;48.822;7.966;2023-04-25T08:38:28;19.17;;;18.30;;
18021;SDS011;9136;48.822;7.966;2023-04-25T08:41:17;19.73;;;18.83;;
18021;SDS011;9136;48.822;7.966;2023-04-25T08:44:08;17.63;;;16.83;;
18021;SDS011;9136;48.822;7.966;2023-04-25T08:46:57;16.23;;;15.50;;
18021;SDS011;9136;48.822;7.966;2023-04-25T08:49:46;19.07;;;18.27;;
18021;SDS011;9136;48.822;7.966;2023-04-25T08:52:36;18.67;;;17.83;;
18021;SDS011;9136;48.822;7.966;2023-04-25T08:55:25;17.80;;;16.83;;
18021;SDS011;9136;48.822;7.966;2023-04-25T08:58:15;20.93;;;20.03;;
18021;SDS011;9136;48.822;7.966;2023-04-25T09:01:05;17.63;;;16.87;;
18021;SDS011;9136;48.822;7.966;2023-04-25T09:03:55;19.03;;;18.17;;
18021;SDS011;9136;48.822;7.966;2023-04-25T09:06:44;17.53;;;16.73;;
18021;SDS011;9136;48.822;7.966;2023-04-25T09:09:32;15.97;;;15.27;;
18021;SDS011;9136;48.822;7.966;2023-04-25T09:12:20;18.77;;;17.87;;
18021;SDS011;9136;48.822;7.966;2023-04-25T09:15:14;18.70;;;17.90;;
18021;SDS011;9136;48.822;7.966;2023-04-25T09:18:04;19.50;;;18.60;;
18021;SDS011;9136;48.822;7.966;2023-04-25T09:20:52;21.07;;;20.17;;
18021;SDS011;9136;48.822;7.966;2023-04-25T09:23:43;20.27;;;19.37;;
18021;SDS011;9136;48.822;7.966;2023-04-25T09:26:32;20.03;;;19.13;;
18021;SDS011;9136;48.822;7.966;2023-04-25T09:29:20;17.23;;;16.53;;
18021;SDS011;9136;48.822;7.966;2023-04-25T09:32:18;16.30;;;15.60;;
18021;SDS011;9136;48.822;7.966;2023-04-25T09:35:07;19.43;;;18.53;;
18021;SDS011;9136;48.822;7.966;2023-04-25T09:37:57;18.87;;;18.03;;
18021;SDS011;9136;48.822;7.966;2023-04-25T09:40:46;18.10;;;17.30;;
18021;SDS011;9136;48.822;7.966;2023-04-25T09:43:35;19.17;;;18.37;;
18021;SDS011;9136;48.822;7.966;2023-04-25T09:46:23;19.13;;;18.33;;
18021;SDS011;9136;48.822;7.966;2023-04-25T09:49:12;19.90;;;18.90;;
18021;SDS011;9136;48.822;7.966;2023-04-25T09:52:02;20.33;;;19.33;;
18021;SDS011;9136;48.822;7.966;2023-04-25T09:54:50;18.07;;;17.27;;
18021;SDS011;9136;48.822;7.966;2023-04-25T09:57:38;18.03;;;17.23;;
18021;SDS011;9136;48.822;7.966;2023-04-25T10:00:26;18.27;;;17.47;;
18021;SDS011;9136;48.822;7.966;2023-04-25T10:03:15;17.20;;;16.40;;
18021;SDS011;9136;48.822;7.966;2023-04-25T10:06:07;17.43;;;16.27;;
18021;SDS011;9136;48.822;7.966;2023-04-25T10:08:56;18.20;;;17.30;;
18021;SDS011;9136;48.822;7.966;2023-04-25T10:11:45;16.77;;;15.80;;
18021;SDS011;9136;48.822;7.966;2023-04-25T10:14:34;18.33;;;17.53;;
18021;SDS011;9136;48.822;7.966;2023-04-25T10:17:22;16.53;;;15.83;;
18021;SDS011;9136;48.822;7.966;2023-04-25T10:20:11;15.83;;;15.13;;
18021;SDS011;9136;48.822;7.966;2023-04-25T10:23:03;17.93;;;17.13;;
18021;SDS011;9136;48.822;7.966;2023-04-25T10:25:56;17.30;;;16.50;;
18021;SDS011;9136;48.822;7.966;2023-04-25T10:28:57;17.80;;;17.00;;
18021;SDS011;9136;48.822;7.966;2023-04-25T10:31:46;17.47;;;16.70;;
18021;SDS011;9136;48.822;7.966;2023-04-25T10:34:38;18.77;;;17.90;;
18021;SDS011;9136;48.822;7.966;2023-04-25T10:37:27;18.47;;;17.67;;
18021;SDS011;9136;48.822;7.966;2023-04-25T10:40:17;18.63;;;17.83;;
18021;SDS011;9136;48.822;7.966;2023-04-25T10:46:23;18.03;;;17.23;;
18021;SDS011;9136;48.822;7.966;2023-04-25T10:49:27;16.23;;;15.53;;
18021;SDS011;9136;48.822;7.966;2023-04-25T10:52:18;16.90;;;16.20;;
18021;SDS011;9136;48.822;7.966;2023-04-25T10:55:11;18.43;;;17.63;;
18021;SDS011;9136;48.822;7.966;2023-04-25T10:58:00;16.47;;;15.77;;
18021;SDS011;9136;48.822;7.966;2023-04-25T11:00:49;16.33;;;15.63;;
18021;SDS011;9136;48.822;7.966;2023-04-25T11:03:40;17.50;;;16.70;;
18021;SDS011;9136;48.822;7.966;2023-04-25T11:06:32;19.10;;;18.23;;
18021;SDS011;9136;48.822;7.966;2023-04-25T11:09:29;17.90;;;17.10;;
18021;SDS011;9136;48.822;7.966;2023-04-25T11:12:17;17.40;;;16.60;;
18021;SDS011;9136;48.822;7.966;2023-04-25T11:15:07;18.00;;;17.20;;
18021;SDS011;9136;48.822;7.966;2023-04-25T11:17:55;15.07;;;14.43;;
18021;SDS011;9136;48.822;7.966;2023-04-25T11:20:43;17.60;;;16.80;;
18021;SDS011;9136;48.822;7.966;2023-04-25T11:23:33;18.07;;;17.27;;
18021;SDS011;9136;48.822;7.966;2023-04-25T11:26:21;16.83;;;16.03;;
18021;SDS011;9136;48.822;7.966;2023-04-25T11:29:09;15.23;;;14.57;;
18021;SDS011;9136;48.822;7.966;2023-04-25T11:31:59;18.17;;;17.37;;
18021;SDS011;9136;48.822;7.966;2023-04-25T11:34:53;17.40;;;16.60;;
18021;SDS011;9136;48.822;7.966;2023-04-25T11:37:41;18.23;;;17.43;;
18021;SDS011;9136;48.822;7.966;2023-04-25T11:40:30;16.53;;;15.83;;
18021;SDS011;9136;48.822;7.966;2023-04-25T11:43:19;17.40;;;16.60;;
18021;SDS011;9136;48.822;7.966;2023-04-25T11:46:08;17.57;;;16.77;;
18021;SDS011;9136;48.822;7.966;2023-04-25T11:48:57;17.23;;;16.43;;
18021;SDS011;9136;48.822;7.966;2023-04-25T11:51:45;20.20;;;19.20;;
18021;SDS011;9136;48.822;7.966;2023-04-25T11:54:35;19.30;;;18.50;;
18021;SDS011;9136;48.822;7.966;2023-04-25T11:57:23;16.73;;;16.03;;
18021;SDS011;9136;48.822;7.966;2023-04-25T12:00:11;19.93;;;19.03;;
18021;SDS011;9136;48.822;7.966;2023-04-25T12:03:01;19.67;;;18.80;;
18021;SDS011;9136;48.822;7.966;2023-04-25T12:05:51;17.53;;;16.77;;
18021;SDS011;9136;48.822;7.966;2023-04-25T12:08:38;19.83;;;18.93;;
18021;SDS011;9136;48.822;7.966;2023-04-25T12:11:47;18.03;;;17.23;;
18021;SDS011;9136;48.822;7.966;2023-04-25T12:14:36;19.80;;;18.90;;
18021;SDS011;9136;48.822;7.966;2023-04-25T12:17:24;19.10;;;18.27;;
18021;SDS011;9136;48.822;7.966;2023-04-25T12:20:12;18.60;;;17.80;;
18021;SDS011;9136;48.822;7.966;2023-04-25T12:23:05;20.40;;;19.50;;
18021;SDS011;9136;48.822;7.966;2023-04-25T12:25:54;18.50;;;17.70;;
18021;SDS011;9136;48.822;7.966;2023-04-25T12:28:44;20.50;;;19.60;;
18021;SDS011;9136;48.822;7.966;2023-04-25T12:31:33;18.60;;;17.80;;
18021;SDS011;9136;48.822;7.966;2023-04-25T12:34:20;17.63;;;16.83;;
18021;SDS011;9136;48.822;7.966;2023-04-25T12:37:09;18.43;;;17.63;;
18021;SDS011;9136;48.822;7.966;2023-04-25T12:39:58;19.27;;;18.43;;
18021;SDS011;9136;48.822;7.966;2023-04-25T12:42:46;17.03;;;16.30;;
18021;SDS011;9136;48.822;7.966;2023-04-25T12:45:35;17.13;;;16.37;;
18021;SDS011;9136;48.822;7.966;2023-04-25T12:48:23;16.23;;;15.53;;
18021;SDS011;9136;48.822;7.966;2023-04-25T12:51:11;16.70;;;16.00;;
18021;SDS011;9136;48.822;7.966;2023-04-25T12:53:59;15.80;;;15.10;;
18021;SDS011;9136;48.822;7.966;2023-04-25T12:56:49;15.23;;;14.53;;
18021;SDS011;9136;48.822;7.966;2023-04-25T12:59:38;15.53;;;14.83;;
18021;SDS011;9136;48.822;7.966;2023-04-25T13:02:26;14.80;;;14.20;;
18021;SDS011;9136;48.822;7.966;2023-04-25T13:05:14;14.70;;;14.10;;
18021;SDS011;9136;48.822;7.966;2023-04-25T13:08:02;15.60;;;14.90;;
18021;SDS011;9136;48.822;7.966;2023-04-25T13:10:50;14.47;;;13.87;;
18021;SDS011;9136;48.822;7.966;2023-04-25T13:13:39;16.53;;;15.30;;
18021;SDS011;9136;48.822;7.966;2023-04-25T13:16:28;15.90;;;15.20;;
18021;SDS011;9136;48.822;7.966;2023-04-25T13:19:16;16.27;;;15.38;;
18021;SDS011;9136;48.822;7.966;2023-04-25T13:22:04;14.70;;;14.10;;
18021;SDS011;9136;48.822;7.966;2023-04-25T13:24:52;14.93;;;14.33;;
18021;SDS011;9136;48.822;7.966;2023-04-25T13:27:39;18.00;;;17.20;;
18021;SDS011;9136;48.822;7.966;2023-04-25T13:30:32;15.00;;;14.40;;
18021;SDS011;9136;48.822;7.966;2023-04-25T13:33:20;15.70;;;15.00;;
18021;SDS011;9136;48.822;7.966;2023-04-25T13:36:09;15.53;;;14.83;;
18021;SDS011;9136;48.822;7.966;2023-04-25T13:38:57;15.93;;;15.23;;
18021;SDS011;9136;48.822;7.966;2023-04-25T13:41:44;14.87;;;14.27;;
18021;SDS011;9136;48.822;7.966;2023-04-25T13:44:33;16.30;;;15.60;;
18021;SDS011;9136;48.822;7.966;2023-04-25T13:47:23;15.83;;;15.13;;
18021;SDS011;9136;48.822;7.966;2023-04-25T13:50:11;15.10;;;14.40;;
18021;SDS011;9136;48.822;7.966;2023-04-25T13:52:59;16.67;;;15.87;;
18021;SDS011;9136;48.822;7.966;2023-04-25T13:55:47;15.37;;;14.70;;
18021;SDS011;9136;48.822;7.966;2023-04-25T13:58:35;15.83;;;15.13;;
18021;SDS011;9136;48.822;7.966;2023-04-25T14:01:23;15.47;;;14.77;;
18021;SDS011;9136;48.822;7.966;2023-04-25T14:04:12;16.47;;;15.77;;
18021;SDS011;9136;48.822;7.966;2023-04-25T14:07:00;16.77;;;16.07;;
18021;SDS011;9136;48.822;7.966;2023-04-25T14:09:48;16.70;;;16.00;;
18021;SDS011;9136;48.822;7.966;2023-04-25T14:12:36;15.53;;;14.83;;
18021;SDS011;9136;48.822;7.966;2023-04-25T14:15:24;14.57;;;13.97;;
18021;SDS011;9136;48.822;7.966;2023-04-25T14:18:12;14.77;;;14.17;;
18021;SDS011;9136;48.822;7.966;2023-04-25T14:21:02;14.37;;;13.77;;
18021;SDS011;9136;48.822;7.966;2023-04-25T14:23:51;16.97;;;16.17;;
18021;SDS011;9136;48.822;7.966;2023-04-25T14:26:44;16.43;;;15.73;;
18021;SDS011;9136;48.822;7.966;2023-04-25T14:29:51;16.50;;;15.80;;
18021;SDS011;9136;48.822;7.966;2023-04-25T14:32:49;15.23;;;14.57;;
18021;SDS011;9136;48.822;7.966;2023-04-25T14:35:37;15.57;;;14.87;;
18021;SDS011;9136;48.822;7.966;2023-04-25T14:38:26;15.50;;;14.80;;
18021;SDS011;9136;48.822;7.966;2023-04-25T14:41:14;16.43;;;15.73;;
18021;SDS011;9136;48.822;7.966;2023-04-25T14:44:02;15.97;;;15.27;;
18021;SDS011;9136;48.822;7.966;2023-04-25T14:46:50;15.40;;;14.70;;
18021;SDS011;9136;48.822;7.966;2023-04-25T14:49:38;15.27;;;14.57;;
18021;SDS011;9136;48.822;7.966;2023-04-25T14:52:26;14.97;;;14.37;;
18021;SDS011;9136;48.822;7.966;2023-04-25T14:55:15;17.43;;;16.53;;
18021;SDS011;9136;48.822;7.966;2023-04-25T14:58:09;15.57;;;14.87;;
18021;SDS011;9136;48.822;7.966;2023-04-25T15:00:58;15.47;;;14.77;;
18021;SDS011;9136;48.822;7.966;2023-04-25T15:03:46;16.53;;;15.83;;
18021;SDS011;9136;48.822;7.966;2023-04-25T15:06:50;16.57;;;15.87;;
18021;SDS011;9136;48.822;7.966;2023-04-25T15:09:38;16.33;;;15.63;;
18021;SDS011;9136;48.822;7.966;2023-04-25T15:12:28;16.70;;;16.00;;
18021;SDS011;9136;48.822;7.966;2023-04-25T15:15:16;16.37;;;15.67;;
18021;SDS011;9136;48.822;7.966;2023-04-25T15:18:06;18.73;;;17.23;;
18021;SDS011;9136;48.822;7.966;2023-04-25T15:20:57;15.20;;;14.50;;
18021;SDS011;9136;48.822;7.966;2023-04-25T15:23:45;18.73;;;17.93;;
18021;SDS011;9136;48.822;7.966;2023-04-25T15:26:33;16.17;;;15.47;;
18021;SDS011;9136;48.822;7.966;2023-04-25T15:29:23;18.20;;;17.40;;
18021;SDS011;9136;48.822;7.966;2023-04-25T15:32:12;18.13;;;17.33;;
18021;SDS011;9136;48.822;7.966;2023-04-25T15:35:01;18.07;;;17.27;;
18021;SDS011;9136;48.822;7.966;2023-04-25T15:37:51;16.53;;;15.83;;
18021;SDS011;9136;48.822;7.966;2023-04-25T15:40:39;17.90;;;17.10;;
18021;SDS011;9136;48.822;7.966;2023-04-25T15:43:27;15.83;;;15.13;;
18021;SDS011;9136;48.822;7.966;2023-04-25T15:46:18;18.60;;;17.80;;
18021;SDS011;9136;48.822;7.966;2023-04-25T15:49:06;15.67;;;14.97;;
18021;SDS011;9136;48.822;7.966;2023-04-25T15:51:54;18.67;;;17.87;;
18021;SDS011;9136;48.822;7.966;2023-04-25T15:54:42;15.73;;;15.03;;
18021;SDS011;9136;48.822;7.966;2023-04-25T15:57:31;16.20;;;15.50;;
18021;SDS011;9136;48.822;7.966;2023-04-25T16:00:20;18.67;;;17.80;;
18021;SDS011;9136;48.822;7.966;2023-04-25T16:03:10;17.83;;;17.03;;
18021;SDS011;9136;48.822;7.966;2023-04-25T16:06:00;17.53;;;16.80;;
18021;SDS011;9136;48.822;7.966;2023-04-25T16:08:48;14.60;;;14.00;;
18021;SDS011;9136;48.822;7.966;2023-04-25T16:11:36;16.07;;;15.37;;
18021;SDS011;9136;48.822;7.966;2023-04-25T16:14:24;18.27;;;17.47;;
18021;SDS011;9136;48.822;7.966;2023-04-25T16:17:15;18.43;;;17.63;;
18021;SDS011;9136;48.822;7.966;2023-04-25T16:20:05;17.50;;;16.70;;
18021;SDS011;9136;48.822;7.966;2023-04-25T16:22:57;18.53;;;17.63;;
18021;SDS011;9136;48.822;7.966;2023-04-25T16:25:45;16.13;;;15.43;;
18021;SDS011;9136;48.822;7.966;2023-04-25T16:28:33;16.60;;;15.90;;
18021;SDS011;9136;48.822;7.966;2023-04-25T16:31:21;15.50;;;14.80;;
18021;SDS011;9136;48.822;7.966;2023-04-25T16:34:08;16.40;;;15.70;;
18021;SDS011;9136;48.822;7.966;2023-04-25T16:36:58;16.83;;;16.03;;
18021;SDS011;9136;48.822;7.966;2023-04-25T16:39:47;18.70;;;17.90;;
18021;SDS011;9136;48.822;7.966;2023-04-25T16:42:35;18.27;;;17.47;;
18021;SDS011;9136;48.822;7.966;2023-04-25T16:45:23;17.60;;;16.80;;